Data for 05/03/2008

Time Sea-Level Adjusted Pressure Absolute Pressure Temperature Relative Humidity Dew Point   
(mb) (inHg) (mb) (inHg) (C) (F) (%) (C) (F)
00:05 1020 30.12 849 25.07 2.7 36.8 68 -2.6 27.4
00:10 1020 30.12 849 25.07 2.6 36.7 68 -2.7 27.2
00:15 1020 30.12 849 25.07 2.7 36.8 68 -2.7 27.1
00:20 1020 30.12 849 25.07 2.7 36.8 68 -2.7 27.2
00:25 1020 30.12 849 25.07 2.6 36.7 68 -2.7 27.1
00:30 1020 30.12 849 25.07 2.5 36.4 69 -2.7 27.2
00:35 1020 30.12 849 25.07 2.2 36 70 -2.7 27.2
00:40 1020 30.12 849 25.07 2.1 35.7 71 -2.7 27.2
00:45 1020 30.12 849 25.07 2 35.6 71 -2.7 27.2
00:50 1020 30.12 849 25.07 2 35.6 71 -2.7 27.1
00:55 1020 30.12 849 25.07 2.2 36 70 -2.7 27.1
01:00 1020 30.12 849 25.07 2.4 36.3 69 -2.7 27.2
01:05 1020 30.12 849 25.07 2.6 36.7 68 -2.7 27.1
01:10 1020 30.12 849 25.07 2.9 37.2 66 -2.8 26.9
01:15 1020 30.12 849 25.07 2.8 37.1 66 -2.8 27
01:20 1020 30.12 849 25.07 2.7 36.8 67 -2.9 26.8
01:25 1020 30.12 849 25.07 2.7 36.8 66 -3 26.6
01:30 1020 30.12 849 25.07 2.8 37 66 -3 26.6
01:35 1020 30.12 849 25.07 2.7 36.9 66 -3 26.6
01:40 1020 30.12 849 25.07 2.6 36.7 66 -3.1 26.4
01:45 1020 30.12 849 25.07 2.5 36.5 67 -3.1 26.4
01:50 1020 30.12 849 25.07 2.3 36.2 67 -3.2 26.2
01:55 1020 30.12 849 25.07 2.3 36.2 67 -3.1 26.3
02:00 1020 30.12 849 25.07 2.2 36 67 -3.2 26.2
02:05 1020 30.12 849 25.07 2.2 35.9 68 -3.1 26.4
02:10 1019 30.09 849 25.07 2.1 35.7 68 -3.1 26.4
02:15 1019 30.09 849 25.07 1.9 35.5 70 -3 26.5
02:20 1019 30.09 849 25.07 1.7 35.1 70 -3.1 26.4
02:25 1019 30.09 849 25.07 1.6 34.9 71 -3.1 26.4
02:30 1019 30.09 849 25.07 1.6 34.8 71 -3.1 26.5
02:35 1019 30.09 849 25.07 1.4 34.5 72 -3.1 26.4
02:40 1019 30.09 849 25.07 1.3 34.4 72 -3.2 26.3
02:45 1019 30.09 848 25.04 1.4 34.5 72 -3.1 26.4
02:50 1019 30.09 848 25.04 1.4 34.6 72 -3.1 26.5
02:55 1019 30.09 848 25.04 1.4 34.5 72 -3.1 26.4
03:00 1019 30.09 848 25.04 1.2 34.2 73 -3.1 26.4
03:05 1019 30.09 848 25.04 1.2 34.1 73 -3.2 26.3
03:10 1019 30.09 848 25.04 1.2 34.2 73 -3.2 26.3
03:15 1019 30.09 848 25.04 1.3 34.4 72 -3.2 26.3
03:20 1019 30.09 848 25.04 1.4 34.5 72 -3.1 26.3
03:25 1019 30.09 848 25.04 1.5 34.6 71 -3.2 26.2
03:30 1019 30.09 848 25.04 1.7 35 70 -3.2 26.2
03:35 1019 30.09 848 25.04 1.7 35 70 -3.2 26.3
03:40 1019 30.09 848 25.04 1.5 34.7 71 -3.2 26.2
03:45 1019 30.09 848 25.04 1.4 34.5 71 -3.3 26.1
03:50 1019 30.09 848 25.04 1.3 34.3 72 -3.3 26.1
03:55 1019 30.09 848 25.04 1.2 34.2 72 -3.3 26
04:00 1019 30.09 848 25.04 1.2 34.2 72 -3.3 26.1
04:05 1019 30.09 848 25.04 1.1 34 73 -3.3 26.1
04:10 1019 30.09 848 25.04 0.9 33.6 74 -3.2 26.2
04:15 1019 30.09 848 25.04 1.2 34.2 72 -3.3 26
04:20 1019 30.09 848 25.04 1.4 34.5 72 -3.2 26.3
04:25 1019 30.09 848 25.04 1.4 34.6 71 -3.2 26.2
04:30 1019 30.09 848 25.04 1.5 34.6 70 -3.4 25.9
04:35 1019 30.09 848 25.04 1.4 34.6 70 -3.4 25.9
04:40 1019 30.09 848 25.04 1.5 34.8 69 -3.5 25.8
04:45 1019 30.09 848 25.04 1.5 34.7 70 -3.4 25.9
04:50 1019 30.09 848 25.04 1.4 34.6 70 -3.5 25.8
04:55 1019 30.09 848 25.04 1.3 34.4 70 -3.5 25.7
05:00 1019 30.09 848 25.04 1.2 34.1 71 -3.5 25.7
05:05 1019 30.09 848 25.04 1.1 33.9 71 -3.6 25.6
05:10 1019 30.09 848 25.04 1.1 33.9 72 -3.5 25.7
05:15 1019 30.09 848 25.04 0.9 33.5 73 -3.5 25.7
05:20 1019 30.09 848 25.04 0.6 33.1 74 -3.6 25.6
05:25 1019 30.09 848 25.04 0.4 32.7 75 -3.6 25.5
05:30 1018 30.06 848 25.04 0.3 32.5 75 -3.7 25.4
05:35 1018 30.06 848 25.04 0.4 32.7 74 -3.7 25.4
05:40 1018 30.06 848 25.04 0.6 33 74 -3.6 25.5
05:45 1018 30.06 848 25.04 0.8 33.4 73 -3.6 25.5
05:50 1018 30.06 848 25.04 0.9 33.6 72 -3.6 25.5
05:55 1018 30.06 848 25.04 1 33.9 71 -3.6 25.5
06:00 1018 30.06 848 25.04 1 33.8 71 -3.6 25.5
06:05 1018 30.06 848 25.04 0.9 33.5 72 -3.7 25.4
06:10 1019 30.09 848 25.04 1 33.8 71 -3.8 25.2
06:15 1019 30.09 848 25.04 1.1 33.9 71 -3.6 25.5
06:20 1019 30.09 848 25.04 1 33.7 71 -3.7 25.3
06:25 1019 30.09 848 25.04 0.8 33.5 72 -3.6 25.5
06:30 1019 30.09 848 25.04 0.7 33.2 72 -3.8 25.2
06:35 1019 30.09 848 25.04 0.9 33.7 71 -3.7 25.3
06:40 1019 30.09 848 25.04 1.1 34 71 -3.6 25.5
06:45 1019 30.09 848 25.04 1.1 33.9 71 -3.6 25.6
06:50 1019 30.09 848 25.04 1 33.8 72 -3.6 25.6
06:55 1019 30.09 848 25.04 1.1 33.9 72 -3.5 25.7
07:00 1019 30.09 848 25.04 1.1 33.9 72 -3.5 25.7
07:05 1019 30.09 848 25.04 1.2 34.2 71 -3.5 25.8
07:10 1019 30.09 848 25.04 1.4 34.6 70 -3.4 25.9
07:15 1019 30.09 848 25.04 1.6 34.9 69 -3.4 25.9
07:20 1019 30.09 848 25.04 1.9 35.4 68 -3.3 26
07:25 1019 30.09 848 25.04 2.2 36 68 -3 26.5
07:30 1019 30.09 848 25.04 2.7 36.8 67 -2.9 26.7
07:35 1019 30.09 848 25.04 2.9 37.2 66 -2.8 27
07:40 1019 30.09 848 25.04 3.2 37.7 65 -2.8 27
07:45 1019 30.09 848 25.04 3.2 37.7 64 -3 26.7
07:50 1019 30.09 848 25.04 3.2 37.7 64 -2.9 26.8
07:55 1019 30.09 848 25.04 3.5 38.3 63 -2.9 26.8
08:00 1019 30.09 848 25.04 4 39.1 62 -2.6 27.2
08:05 1019 30.09 848 25.04 4.6 40.2 60 -2.4 27.6
08:10 1019 30.09 848 25.04 5 41 60 -2.1 28.1
08:15 1019 30.09 848 25.04 5.5 42 55 -2.8 26.9
08:20 1019 30.09 848 25.04 5.7 42.2 54 -2.8 27
08:25 1019 30.09 848 25.04 6.3 43.4 52 -2.9 26.8
08:30 1019 30.09 848 25.04 6.2 43.2 54 -2.5 27.5
08:35 1019 30.09 848 25.04 6.3 43.3 51 -3 26.6
08:40 1019 30.09 848 25.04 6.4 43.6 50 -3.2 26.2
08:45 1019 30.09 848 25.04 6.6 43.9 51 -2.9 26.7
08:50 1019 30.09 848 25.04 6.4 43.6 51 -3 26.6
08:55 1018 30.06 848 25.04 6.7 44.1 50 -2.8 26.9
09:00 1018 30.06 848 25.04 6.9 44.5 50 -2.9 26.8
09:05 1018 30.06 848 25.04 7.3 45.2 49 -2.7 27.2
09:10 1018 30.06 848 25.04 7.5 45.5 49 -2.5 27.5
09:15 1018 30.06 848 25.04 7.7 45.9 48 -2.5 27.5
09:20 1018 30.06 847 25.01 8.1 46.5 47 -2.7 27.2
09:25 1018 30.06 847 25.01 8.2 46.7 46 -2.7 27.2
09:30 1018 30.06 847 25.01 7.6 45.6 49 -2.5 27.5
09:35 1018 30.06 847 25.01 7.2 44.9 49 -2.9 26.8
09:40 1018 30.06 847 25.01 8 46.4 47 -2.7 27.2
09:45 1018 30.06 847 25.01 7.9 46.1 48 -2.5 27.5
09:50 1018 30.06 847 25.01 8.5 47.2 44 -2.9 26.7
09:55 1018 30.06 847 25.01 9 48.2 43 -2.7 27.1
10:00 1018 30.06 847 25.01 8.8 47.8 44 -2.8 26.9
10:05 1018 30.06 847 25.01 9.4 48.9 41 -3.1 26.4
10:10 1018 30.06 847 25.01 9.5 49 40 -3.5 25.7
10:15 1018 30.06 847 25.01 9.5 49.1 42 -2.8 27
10:20 1018 30.06 847 25.01 9.5 49.1 42 -2.9 26.8
10:25 1018 30.06 847 25.01 9.8 49.7 41 -2.7 27.1
10:30 1018 30.06 847 25.01 10 50 42 -2.4 27.7
10:35 1018 30.06 847 25.01 10.5 51 40 -2.6 27.4
10:40 1018 30.06 847 25.01 11.1 52.1 36 -3.5 25.7
10:45 1018 30.06 847 25.01 11 51.7 33 -4.5 23.9
10:50 1017 30.03 847 25.01 10.4 50.7 34 -4.6 23.8
10:55 1017 30.03 847 25.01 11.2 52.1 34 -3.9 25
11:00 1017 30.03 847 25.01 10.9 51.5 37 -3.1 26.4
11:05 1017 30.03 847 25.01 10.9 51.6 38 -2.9 26.9
11:10 1017 30.03 847 25.01 12.2 54 33 -3.6 25.5
11:15 1017 30.03 847 25.01 11.4 52.6 36 -3.3 26.1
11:20 1017 30.03 847 25.01 11.3 52.3 35 -3.6 25.5
11:25 1017 30.03 846 24.98 11.4 52.5 34 -4 24.8
11:30 1017 30.03 846 24.98 11.7 53.1 32 -4.5 23.9
11:35 1017 30.03 846 24.98 11.9 53.5 32 -4.1 24.6
11:40 1017 30.03 846 24.98 13.1 55.5 28 -4.9 23.2
11:45 1017 30.03 846 24.98 13.4 56.2 28 -4.6 23.8
11:50 1017 30.03 846 24.98 13.2 55.8 26 -5.7 21.7
11:55 1017 30.03 846 24.98 14 57.2 24 -6.1 21
12:00 1017 30.03 846 24.98 14.1 57.4 25 -5.5 22.2
12:05 1017 30.03 846 24.98 13.7 56.7 26 -5.2 22.6
12:10 1017 30.03 846 24.98 12.6 54.6 28 -5.6 21.9
12:15 1017 30.03 846 24.98 12.4 54.3 27 -6.1 21.1
12:20 1017 30.03 846 24.98 13 55.4 21 -8.7 16.3
12:25 1017 30.03 846 24.98 14.6 58.3 18 -9.2 15.4
12:30 1017 30.03 846 24.98 14.4 58 19 -9.1 15.7
12:35 1017 30.03 846 24.98 14.9 58.8 20 -7.9 17.8
12:40 1017 30.03 846 24.98 13.7 56.7 21 -8 17.6
12:45 1017 30.03 846 24.98 13.5 56.3 22 -7.7 18.2
12:50 1017 30.03 846 24.98 14.9 58.8 20 -7.9 17.8
12:55 1017 30.03 846 24.98 14.8 58.7 19 -8.6 16.5
13:00 1016 30 846 24.98 13.8 56.9 21 -8.2 17.2
13:05 1016 30 845 24.95 15 58.9 21 -7.3 18.9
13:10 1016 30 845 24.95 15.1 59.3 19 -8.5 16.7
13:15 1016 30 845 24.95 15.6 60.1 18 -8.6 16.5
13:20 1016 30 845 24.95 15.8 60.4 20 -7.3 18.8
13:25 1016 30 845 24.95 17 62.5 18 -7.2 19
13:30 1016 30 845 24.95 16.3 61.3 21 -6 21.2
13:35 1016 30 845 24.95 15.4 59.7 21 -6.8 19.8
13:40 1016 30 845 24.95 14.1 57.5 22 -7.1 19.3
13:45 1016 30 845 24.95 13.8 56.9 22 -7.3 18.9
13:50 1016 30 845 24.95 14.1 57.4 23 -6.4 20.4
13:55 1016 30 845 24.95 15.3 59.5 22 -6.5 20.4
14:00 1016 30 845 24.95 15.5 60 22 -6 21.2
14:05 1016 30 845 24.95 15.1 59.1 22 -6.6 20.1
14:10 1016 30 845 24.95 14.9 58.9 22 -6.8 19.7
14:15 1016 30 845 24.95 15.4 59.8 21 -6.7 20
14:20 1016 30 845 24.95 16.4 61.6 22 -5.4 22.2
14:25 1016 30 845 24.95 16.7 62.1 20 -6.2 20.9
14:30 1016 30 845 24.95 16.7 62 21 -5.8 21.6
14:35 1016 30 845 24.95 16.2 61.2 21 -5.9 21.3
14:40 1016 30 845 24.95 15.4 59.8 22 -6 21.2
14:45 1016 30 845 24.95 15.9 60.7 21 -6.5 20.3
14:50 1015 29.97 845 24.95 16.6 61.9 20 -6.6 20.1
14:55 1015 29.97 845 24.95 16.3 61.4 20 -6.7 19.9
15:00 1015 29.97 845 24.95 16.5 61.7 20 -6.6 20.1
15:05 1015 29.97 845 24.95 15.7 60.3 21 -6.4 20.5
15:10 1015 29.97 844 24.92 16.1 60.9 20 -6.6 20.1
15:15 1015 29.97 844 24.92 16.4 61.5 20 -6.8 19.7
15:20 1015 29.97 844 24.92 15.9 60.6 19 -7.6 18.4
15:25 1015 29.97 844 24.92 16 60.8 19 -7.7 18.2
15:30 1015 29.97 844 24.92 16.7 62.1 17 -8.1 17.5
15:35 1015 29.97 844 24.92 17.2 63 18 -7.3 18.8
15:40 1015 29.97 844 24.92 16.8 62.3 18 -7.3 18.8
15:45 1015 29.97 844 24.92 15.7 60.2 20 -7 19.4
15:50 1015 29.97 844 24.92 16.4 61.5 19 -7.5 18.4
15:55 1015 29.97 844 24.92 16.9 62.5 18 -7.5 18.4
16:00 1015 29.97 844 24.92 16.1 60.9 19 -7.3 18.9
16:05 1015 29.97 844 24.92 16.1 60.9 19 -7.3 18.9
16:10 1015 29.97 844 24.92 16.7 62 19 -6.8 19.8
16:15 1015 29.97 844 24.92 16.1 61 20 -7.1 19.3
16:20 1015 29.97 844 24.92 16.9 62.4 19 -6.6 20.1
16:25 1015 29.97 844 24.92 17.2 63 19 -6.5 20.4
16:30 1015 29.97 844 24.92 16.6 62 18 -7.6 18.3
16:35 1015 29.97 844 24.92 15.8 60.4 19 -7.8 18
16:40 1015 29.97 844 24.92 16.5 61.7 18 -7.9 17.8
16:45 1015 29.97 844 24.92 16.3 61.4 18 -8.3 17.1
16:50 1015 29.97 844 24.92 15.8 60.4 18 -8.5 16.7
16:55 1015 29.97 844 24.92 16.1 60.9 18 -8.6 16.6
17:00 1014 29.94 844 24.92 16.3 61.3 18 -8.1 17.5
17:05 1014 29.94 844 24.92 16.8 62.3 16 -9 15.8
17:10 1014 29.94 844 24.92 16.9 62.5 18 -7.6 18.3
17:15 1014 29.94 844 24.92 16.4 61.5 18 -7.6 18.3
17:20 1014 29.94 844 24.92 16.4 61.5 17 -8.4 16.8
17:25 1014 29.94 844 24.92 16.4 61.5 18 -8.2 17.2
17:30 1015 29.97 844 24.92 16.5 61.6 16 -9.2 15.5
17:35 1015 29.97 844 24.92 17 62.7 16 -9.2 15.5
17:40 1014 29.94 844 24.92 16.8 62.2 16 -9.1 15.7
17:45 1014 29.94 844 24.92 15.8 60.5 18 -8.5 16.7
17:50 1014 29.94 844 24.92 15.5 59.8 18 -8.6 16.5
17:55 1014 29.94 844 24.92 15.6 60 18 -8.3 17.1
18:00 1014 29.94 844 24.92 15.6 60.2 19 -8.2 17.3
18:05 1014 29.94 844 24.92 15.9 60.5 20 -7.3 18.9
18:10 1014 29.94 844 24.92 15.9 60.6 19 -7.8 18
18:15 1014 29.94 844 24.92 15.9 60.6 20 -7.2 19
18:20 1014 29.94 844 24.92 15.3 59.5 19 -8 17.6
18:25 1014 29.94 844 24.92 15 58.9 20 -7.9 17.9
18:30 1014 29.94 844 24.92 15.4 59.6 19 -8.3 17
18:35 1014 29.94 844 24.92 15.5 59.8 19 -7.9 17.8
18:40 1015 29.97 844 24.92 15.5 59.8 19 -7.7 18.1
18:45 1014 29.94 844 24.92 14.9 58.9 20 -8.1 17.5
18:50 1015 29.97 844 24.92 14.5 58.1 20 -8 17.6
18:55 1015 29.97 844 24.92 14.3 57.7 20 -8.1 17.3
19:00 1015 29.97 844 24.92 14.2 57.6 20 -8.1 17.3
19:05 1015 29.97 844 24.92 14.2 57.6 20 -8.2 17.3
19:10 1015 29.97 844 24.92 14.2 57.6 21 -8 17.7
19:15 1015 29.97 844 24.92 14.5 58.2 20 -8.1 17.3
19:20 1015 29.97 844 24.92 14.3 57.7 20 -8.2 17.3
19:25 1015 29.97 844 24.92 14.1 57.4 21 -7.9 17.9
19:30 1015 29.97 844 24.92 14.2 57.6 21 -7.8 18
19:35 1015 29.97 844 24.92 14.1 57.5 21 -7.6 18.3
19:40 1015 29.97 844 24.92 14 57.1 22 -7.5 18.5
19:45 1015 29.97 844 24.92 13.9 57.1 22 -7.3 18.8
19:50 1015 29.97 844 24.92 13.9 57 22 -7.1 19.2
19:55 1015 29.97 844 24.92 14 57.2 22 -7.1 19.2
20:00 1015 29.97 844 24.92 14 57.2 23 -6.8 19.8
20:05 1015 29.97 844 24.92 14 57.1 24 -6.5 20.3
20:10 1015 29.97 844 24.92 13.8 56.9 24 -6.1 21.1
20:15 1015 29.97 844 24.92 13.7 56.7 26 -5.3 22.5
20:20 1015 29.97 844 24.92 13.4 56.1 28 -4.9 23.1
20:25 1015 29.97 844 24.92 13 55.4 28 -4.8 23.3
20:30 1015 29.97 844 24.92 12.5 54.5 30 -4.7 23.5
20:35 1015 29.97 844 24.92 12.2 53.9 30 -4.8 23.3
20:40 1015 29.97 844 24.92 12 53.7 30 -5.1 22.9
20:45 1015 29.97 844 24.92 12 53.6 30 -5.1 22.8
20:50 1015 29.97 844 24.92 11.9 53.4 29 -5.4 22.3
20:55 1015 29.97 844 24.92 11.8 53.3 30 -5.3 22.4
21:00 1015 29.97 844 24.92 11.8 53.3 29 -5.4 22.2
21:05 1015 29.97 845 24.95 11.8 53.2 30 -5.4 22.3
21:10 1015 29.97 845 24.95 11.5 52.7 32 -4.5 23.9
21:15 1015 29.97 845 24.95 11 51.7 34 -4.1 24.6
21:20 1015 29.97 845 24.95 10.6 51.1 36 -3.6 25.4
21:25 1016 30 845 24.95 10.3 50.6 40 -2.7 27.2
21:30 1016 30 845 24.95 9.8 49.6 40 -3 26.6
21:35 1016 30 845 24.95 9.8 49.6 42 -2.5 27.5
21:40 1016 30 845 24.95 9.6 49.2 41 -3 26.6
21:45 1016 30 845 24.95 9.5 49.1 43 -2.3 27.8
21:50 1016 30 845 24.95 9.2 48.6 43 -2.7 27.2
21:55 1016 30 845 24.95 9.4 48.8 42 -2.9 26.8
22:00 1016 30 845 24.95 9.2 48.6 43 -2.5 27.4
22:05 1016 30 845 24.95 9.2 48.5 43 -2.6 27.3
22:10 1016 30 845 24.95 9.4 48.9 42 -3 26.6
22:15 1016 30 845 24.95 9.6 49.2 41 -2.9 26.8
22:20 1016 30 845 24.95 9.6 49.2 43 -2.5 27.5
22:25 1016 30 845 24.95 9.4 48.8 43 -2.4 27.7
22:30 1016 30 845 24.95 9.3 48.8 43 -2.7 27.2
22:35 1016 30 846 24.98 9.5 49.1 42 -2.7 27.1
22:40 1016 30 846 24.98 9.6 49.2 41 -3.1 26.5
22:45 1016 30 846 24.98 9.5 49.2 41 -3.1 26.4
22:50 1016 30 846 24.98 9.5 49.1 41 -3 26.5
22:55 1016 30 846 24.98 9.5 49.2 40 -3.5 25.7
23:00 1016 30 846 24.98 9.5 49.1 40 -3.4 25.9
23:05 1016 30 846 24.98 9.5 49 40 -3.5 25.6
23:10 1016 30 846 24.98 9.5 49 40 -3.4 25.8
23:15 1016 30 846 24.98 9.4 49 40 -3.5 25.7
23:20 1017 30.03 846 24.98 9.5 49.2 40 -3.3 26.1
23:25 1017 30.03 846 24.98 9.6 49.2 38 -4.1 24.7
23:30 1017 30.03 846 24.98 9.8 49.6 39 -3.3 26
23:35 1017 30.03 846 24.98 9.4 48.9 40 -3.4 26
23:40 1017 30.03 846 24.98 9.4 48.8 41 -3.3 26.1
23:45 1017 30.03 846 24.98 9.4 48.9 41 -3.3 26.1
23:50 1017 30.03 846 24.98 9.5 49.1 41 -3 26.6
23:55 1017 30.03 846 24.98 9.3 48.8 41 -3.1 26.4
24:00 1017 30.03 846 24.98 9.1 48.4 42 -3 26.6